Time;durP1;ratioP1;P1;durP2;ratioP2;P2;SDS_P1;SDS_P2;PMS_P1;PMS_P2;Temp;Humidity;BMP_temperature;BMP_pressure;BME280_temperature;BME280_humidity;BME280_pressure;Samples;Min_cycle;Max_cycle;Signal;HPM_P1;HPM_P2
2021/04/12 00:00:33;;;;;;;1.55;1.20;;;6.90;99.90;;;;;;5035307;28;20400;-83
2021/04/12 00:03:16;;;;;;;1.23;1.13;;;7.00;99.90;;;;;;5033695;28;20026;-84
2021/04/12 00:05:56;;;;;;;1.48;1.30;;;7.30;99.90;;;;;;5033610;28;20029;-84
2021/04/12 00:08:48;;;;;;;1.20;1.10;;;7.30;99.90;;;;;;5033589;28;20481;-83
2021/04/12 00:11:40;;;;;;;1.75;1.20;;;7.30;99.90;;;;;;5034056;28;20377;-84
2021/04/12 00:14:23;;;;;;;1.55;1.45;;;7.30;99.90;;;;;;5034442;28;20056;-85
2021/04/12 00:16:56;;;;;;;1.20;1.10;;;7.30;99.90;;;;;;5033042;28;20036;-84
2021/04/12 00:19:37;;;;;;;1.92;1.35;;;7.20;99.90;;;;;;5033269;28;20116;-83
2021/04/12 00:22:06;;;;;;;1.00;0.90;;;7.30;99.90;;;;;;5034853;28;20079;-84
2021/04/12 00:24:44;;;;;;;1.30;1.20;;;7.70;99.90;;;;;;5033216;28;20072;-84
2021/04/12 00:27:34;;;;;;;1.20;1.10;;;7.70;99.90;;;;;;5033227;28;20046;-84
2021/04/12 00:30:07;;;;;;;1.15;1.05;;;7.60;99.90;;;;;;5015924;28;20079;-84
2021/04/12 00:33:15;;;;;;;1.48;1.20;;;7.50;99.90;;;;;;5034672;28;20025;-84
2021/04/12 00:35:49;;;;;;;1.70;1.33;;;7.50;99.90;;;;;;5032980;28;20493;-84
2021/04/12 00:38:21;;;;;;;1.23;1.13;;;7.30;99.90;;;;;;5032761;28;20366;-84
2021/04/12 00:40:56;;;;;;;1.20;1.10;;;7.50;99.90;;;;;;5016461;28;20532;-84
2021/04/12 00:43:27;;;;;;;1.40;1.30;;;7.50;99.90;;;;;;5034416;28;20113;-84
2021/04/12 00:46:08;;;;;;;1.30;1.20;;;7.50;99.90;;;;;;5016372;28;20021;-84
2021/04/12 00:48:42;;;;;;;2.25;1.20;;;7.30;99.90;;;;;;5016348;28;20026;-84
2021/04/12 00:51:26;;;;;;;1.83;1.70;;;7.30;99.90;;;;;;5034038;28;20047;-84
2021/04/12 00:54:21;;;;;;;1.75;1.48;;;7.40;99.90;;;;;;5034005;28;20049;-84
2021/04/12 00:57:22;;;;;;;1.30;1.20;;;7.40;99.90;;;;;;5016176;28;20122;-84
2021/04/12 01:00:01;;;;;;;2.95;1.90;;;7.50;99.90;;;;;;5013927;28;20041;-83
2021/04/12 01:02:32;;;;;;;1.75;1.65;;;7.50;99.90;;;;;;5033862;28;20064;-84
2021/04/12 01:05:04;;;;;;;1.50;1.40;;;6.80;99.90;;;;;;5016118;28;20076;-84
2021/04/12 01:07:29;;;;;;;2.00;1.80;;;7.40;99.90;;;;;;5033737;28;20029;-84
2021/04/12 01:10:07;;;;;;;1.50;1.40;;;7.30;99.90;;;;;;5033722;28;20033;-84
2021/04/12 01:13:01;;;;;;;2.38;1.58;;;7.50;99.90;;;;;;5015960;28;20542;-84
2021/04/12 01:16:04;;;;;;;1.83;1.40;;;7.50;99.90;;;;;;5015906;28;20091;-84
2021/04/12 01:18:51;;;;;;;1.48;1.17;;;7.40;99.90;;;;;;5033521;28;20025;-83
2021/04/12 01:21:50;;;;;;;1.75;1.65;;;7.00;99.90;;;;;;5015860;28;20022;-83
2021/04/12 01:25:02;;;;;;;1.70;1.60;;;7.20;99.90;;;;;;5033571;28;20366;-84
2021/04/12 01:27:47;;;;;;;3.65;2.25;;;7.10;99.90;;;;;;5033641;28;20032;-84
2021/04/12 01:30:28;;;;;;;4.05;1.90;;;7.00;99.90;;;;;;5015851;28;20087;-83
2021/04/12 01:33:22;;;;;;;2.88;2.22;;;7.30;99.90;;;;;;5033483;28;20022;-84
2021/04/12 01:36:20;;;;;;;2.15;1.95;;;6.90;99.90;;;;;;5015736;28;20028;-83
2021/04/12 01:39:10;;;;;;;3.03;1.80;;;7.10;99.90;;;;;;5033161;28;20049;-84
2021/04/12 01:41:51;;;;;;;3.72;2.10;;;7.10;99.90;;;;;;5033377;28;20044;-84
2021/04/12 01:44:25;;;;;;;3.47;2.30;;;;;;;;;;5015632;28;20021;-85
2021/04/12 01:46:52;;;;;;;;;;;;;;;;;;5034059;28;20044;-84
2021/04/12 01:49:21;;;;;;;4.22;2.33;;;;;;;;;;5033284;28;20368;-84
2021/04/12 01:51:53;;;;;;;3.83;1.88;;;7.00;99.90;;;;;;5015541;28;20030;-84
2021/04/12 01:54:57;;;;;;;2.50;2.30;;;6.90;99.90;;;;;;5015532;28;20029;-84
2021/04/12 01:57:41;;;;;;;3.22;2.15;;;6.60;99.90;;;;;;4975742;28;20621;-84
2021/04/12 02:00:32;;;;;;;2.77;2.37;;;6.90;99.90;;;;;;5012230;28;20500;-84
2021/04/12 02:03:19;;;;;;;2.20;2.00;;;6.60;99.90;;;;;;5015511;28;20295;-84
2021/04/12 02:06:21;;;;;;;2.10;1.88;;;6.80;99.90;;;;;;5033165;28;20100;-84
2021/04/12 02:09:11;;;;;;;3.58;2.13;;;7.10;99.90;;;;;;5033126;28;20021;-84
2021/04/12 02:11:56;;;;;;;2.13;1.92;;;7.00;99.90;;;;;;5015976;28;20026;-83
2021/04/12 02:15:09;;;;;;;2.78;2.25;;;6.80;99.90;;;;;;5033287;28;20036;-83
2021/04/12 02:18:05;;;;;;;1.85;1.75;;;6.90;99.90;;;;;;5011960;28;20132;-84
2021/04/12 02:21:04;;;;;;;2.70;1.70;;;6.90;99.90;;;;;;5015335;28;20109;-84
2021/04/12 02:24:00;;;;;;;1.80;1.70;;;7.10;99.90;;;;;;5015297;28;20017;-83
2021/04/12 02:26:47;;;;;;;4.63;2.03;;;6.90;99.90;;;;;;5015233;28;20026;-84
2021/04/12 02:29:41;;;;;;;2.75;2.22;;;6.70;99.90;;;;;;5033051;28;20025;-84
2021/04/12 02:32:30;;;;;;;2.50;2.30;;;6.40;99.90;;;;;;5015257;28;20052;-84
2021/04/12 02:35:24;;;;;;;3.88;2.47;;;6.70;99.90;;;;;;5032903;28;20025;-84
2021/04/12 02:38:12;;;;;;;3.33;2.90;;;6.60;99.90;;;;;;5015479;28;20034;-84
2021/04/12 02:40:55;;;;;;;2.50;2.30;;;6.50;99.90;;;;;;5036748;28;20068;-84
2021/04/12 02:43:40;;;;;;;3.50;3.17;;;6.60;99.90;;;;;;5035197;28;20028;-84
2021/04/12 02:46:24;;;;;;;;;;;6.60;99.90;;;;;;5035489;28;20024;-84
2021/04/12 02:49:06;;;;;;;3.92;3.15;;;6.40;99.90;;;;;;5036259;28;19906;-84
2021/04/12 02:52:11;;;;;;;3.65;2.60;;;6.20;99.90;;;;;;5035098;28;20080;-84
2021/04/12 02:55:03;;;;;;;3.75;3.05;;;6.80;99.90;;;;;;5035031;28;20424;-84
2021/04/12 02:57:41;;;;;;;3.30;3.00;;;6.70;99.90;;;;;;5034966;28;20034;-84
2021/04/12 03:00:21;;;;;;;2.80;2.50;;;6.40;99.90;;;;;;5034844;28;20088;-84
2021/04/12 03:02:56;;;;;;;3.50;3.03;;;6.60;99.90;;;;;;5034795;28;20026;-84
2021/04/12 03:05:46;;;;;;;4.93;2.88;;;6.70;99.90;;;;;;5034767;28;20057;-84
2021/04/12 03:08:11;;;;;;;2.72;2.38;;;6.50;99.90;;;;;;5036278;28;20025;-84
2021/04/12 03:10:54;;;;;;;3.00;2.70;;;6.50;99.90;;;;;;5035917;28;20473;-84
2021/04/12 03:13:54;;;;;;;3.30;2.78;;;6.40;99.90;;;;;;5034688;28;20041;-84
2021/04/12 03:16:41;;;;;;;4.07;2.40;;;6.60;99.90;;;;;;5034499;28;20084;-84
2021/04/12 03:19:42;;;;;;;5.93;2.75;;;6.50;99.90;;;;;;5035732;28;20036;-84
2021/04/12 03:22:08;;;;;;;3.42;2.85;;;6.70;99.90;;;;;;5018796;28;20080;-84
2021/04/12 03:24:50;;;;;;;2.78;2.47;;;6.70;99.90;;;;;;5034401;28;20053;-84
2021/04/12 03:27:16;;;;;;;3.28;2.53;;;6.70;99.90;;;;;;5035675;28;20097;-84
2021/04/12 03:30:05;;;;;;;2.45;2.25;;;6.70;99.90;;;;;;5035558;28;20068;-84
2021/04/12 03:32:37;;;;;;;3.78;2.90;;;6.60;99.90;;;;;;5035513;28;20068;-84
2021/04/12 03:35:08;;;;;;;3.97;2.67;;;6.60;99.90;;;;;;5034111;28;20028;-84
2021/04/12 03:37:56;;;;;;;3.45;3.15;;;6.40;99.90;;;;;;5034705;28;20381;-84
2021/04/12 03:40:36;;;;;;;3.85;3.05;;;6.10;99.90;;;;;;5018269;28;20567;-84
2021/04/12 03:43:14;;;;;;;2.83;2.45;;;6.00;99.90;;;;;;5017535;28;20033;-84
2021/04/12 03:46:06;;;;;;;2.90;2.20;;;6.10;99.90;;;;;;5017421;28;20481;-84
2021/04/12 03:48:56;;;;;;;1.98;1.80;;;6.30;99.90;;;;;;5035210;28;20021;-84
2021/04/12 03:51:59;;;;;;;2.88;1.90;;;6.60;99.90;;;;;;5035479;28;20385;-84
2021/04/12 03:54:57;;;;;;;2.08;1.70;;;6.90;99.90;;;;;;5017298;28;20527;-84
2021/04/12 03:57:50;;;;;;;3.40;2.28;;;6.50;99.90;;;;;;5017267;28;20387;-84
2021/04/12 04:00:33;;;;;;;3.22;1.95;;;6.00;99.90;;;;;;5017219;28;20076;-84
2021/04/12 04:03:02;;;;;;;2.08;1.88;;;6.10;99.90;;;;;;5017193;28;20120;-84
2021/04/12 04:06:08;;;;;;;2.78;1.90;;;5.90;99.90;;;;;;5017122;28;20495;-83
2021/04/12 04:09:11;;;;;;;2.60;1.75;;;5.80;99.90;;;;;;5017060;28;20036;-84
2021/04/12 04:11:56;;;;;;;2.65;2.08;;;5.90;99.90;;;;;;5017027;28;20469;-84
2021/04/12 04:14:44;;;;;;;1.80;1.63;;;6.00;99.90;;;;;;5017001;28;20026;-84
2021/04/12 04:17:16;;;;;;;2.65;1.55;;;6.00;99.90;;;;;;5034696;28;20048;-84
2021/04/12 04:19:56;;;;;;;2.22;1.80;;;5.80;99.90;;;;;;5016850;28;20025;-84
2021/04/12 04:22:34;;;;;;;1.70;1.60;;;5.80;99.90;;;;;;5034575;28;20075;-84
2021/04/12 04:25:07;;;;;;;1.70;1.60;;;5.70;99.90;;;;;;5016804;28;20112;-85
2021/04/12 04:27:39;;;;;;;1.57;1.47;;;5.80;99.90;;;;;;5016819;28;20033;-84
2021/04/12 04:30:23;;;;;;;1.65;1.55;;;6.20;99.90;;;;;;5034396;28;20026;-84
2021/04/12 04:33:18;;;;;;;1.58;1.40;;;6.00;99.90;;;;;;5016657;28;20029;-84
2021/04/12 04:36:23;;;;;;;1.10;1.00;;;6.40;99.90;;;;;;5016629;28;20397;-84
2021/04/12 04:39:30;;;;;;;1.38;1.10;;;6.30;99.90;;;;;;5034040;28;20054;-84
2021/04/12 04:42:31;;;;;;;2.20;1.27;;;6.40;99.90;;;;;;4976461;28;20058;-84
2021/04/12 04:45:21;;;;;;;1.30;1.20;;;6.40;99.90;;;;;;5032893;28;20044;-84
2021/04/12 04:48:01;;;;;;;1.10;1.00;;;6.30;99.90;;;;;;5016404;28;20021;-84
2021/04/12 04:50:57;;;;;;;1.05;0.90;;;6.10;99.90;;;;;;5016315;28;20083;-84
2021/04/12 04:53:32;;;;;;;1.30;1.20;;;6.10;99.90;;;;;;5034172;28;20032;-84
2021/04/12 04:56:09;;;;;;;1.10;1.00;;;6.20;99.90;;;;;;5016261;28;20484;-85
2021/04/12 04:58:47;;;;;;;1.40;1.20;;;6.30;99.90;;;;;;5016514;28;20075;-84
2021/04/12 05:01:22;;;;;;;1.30;1.20;;;6.20;99.90;;;;;;5015928;28;20115;-84
2021/04/12 05:04:09;;;;;;;1.15;1.05;;;6.20;99.90;;;;;;5016118;28;20025;-84
2021/04/12 05:06:47;;;;;;;1.35;1.25;;;6.40;99.90;;;;;;5016045;28;20018;-85
2021/04/12 05:09:27;;;;;;;2.03;1.42;;;6.30;99.90;;;;;;5016131;28;20025;-84
2021/04/12 05:12:30;;;;;;;1.75;1.40;;;6.30;99.90;;;;;;5015965;28;20481;-84
2021/04/12 05:15:04;;;;;;;3.25;1.40;;;6.40;99.90;;;;;;5016444;28;20472;-84
2021/04/12 05:17:36;;;;;;;1.30;1.20;;;6.50;99.90;;;;;;5015881;28;20021;-84
2021/04/12 05:20:20;;;;;;;1.63;1.17;;;6.70;99.90;;;;;;5015775;28;20029;-84
2021/04/12 05:23:04;;;;;;;1.42;1.30;;;6.70;99.90;;;;;;5015885;28;20032;-84
2021/04/12 05:26:03;;;;;;;1.90;1.40;;;6.60;99.90;;;;;;5015793;28;20029;-84
2021/04/12 05:28:59;;;;;;;2.03;1.75;;;6.10;99.90;;;;;;5033487;28;20601;-84
2021/04/12 05:31:40;;;;;;;1.85;1.33;;;6.20;99.90;;;;;;5015853;28;20095;-84
2021/04/12 05:34:43;;;;;;;2.30;1.70;;;6.20;99.90;;;;;;5033433;28;20030;-84
2021/04/12 05:37:50;;;;;;;2.20;2.00;;;6.20;99.90;;;;;;5015746;28;20026;-84
2021/04/12 05:40:27;;;;;;;2.92;2.08;;;6.10;99.90;;;;;;5048632;28;20052;-84
2021/04/12 05:43:13;;;;;;;2.38;1.50;;;6.30;99.90;;;;;;5052118;28;20392;-84
2021/04/12 05:45:39;;;;;;;2.30;1.58;;;6.40;99.90;;;;;;5053284;28;20032;-84
2021/04/12 05:48:22;;;;;;;3.55;1.90;;;6.50;99.90;;;;;;5053267;28;20021;-84
2021/04/12 05:51:13;;;;;;;4.70;2.20;;;6.40;99.90;;;;;;5052013;28;20528;-84
2021/04/12 05:54:01;;;;;;;2.72;1.95;;;6.40;99.90;;;;;;5053184;28;20465;-84
2021/04/12 05:57:04;;;;;;;4.35;2.42;;;6.40;99.90;;;;;;5053256;28;20067;-84
2021/04/12 05:59:48;;;;;;;2.35;2.00;;;6.60;99.90;;;;;;5051828;28;20036;-84
2021/04/12 06:02:20;;;;;;;;;;;6.60;99.90;;;;;;5053546;28;20053;-84
2021/04/12 06:05:06;;;;;;;4.75;2.60;;;6.80;99.90;;;;;;5053294;28;19911;-83
2021/04/12 06:07:47;;;;;;;4.97;3.00;;;6.90;99.90;;;;;;5052040;28;20021;-84
2021/04/12 06:10:51;;;;;;;4.10;3.28;;;6.90;99.90;;;;;;5053041;28;20358;-84
2021/04/12 06:13:57;;;;;;;4.32;2.35;;;6.60;99.90;;;;;;5052788;28;20028;-84
2021/04/12 06:16:50;;;;;;;3.47;2.97;;;6.70;99.90;;;;;;5056794;28;20021;-84
2021/04/12 06:19:46;;;;;;;3.70;3.08;;;6.40;99.90;;;;;;5055513;28;20500;-84
2021/04/12 06:22:41;;;;;;;3.30;2.65;;;6.30;99.90;;;;;;5056776;28;20055;-84
2021/04/12 06:25:44;;;;;;;4.18;2.70;;;6.60;99.90;;;;;;5055364;28;20078;-84
2021/04/12 06:28:41;;;;;;;3.85;3.00;;;6.50;99.90;;;;;;5055315;28;20035;-84
2021/04/12 06:31:35;;;;;;;6.05;3.38;;;6.60;99.90;;;;;;5056631;28;20090;-84
2021/04/12 06:34:32;;;;;;;5.18;3.40;;;6.70;99.90;;;;;;5055285;28;20461;-84
2021/04/12 06:37:13;;;;;;;3.67;2.42;;;6.70;99.90;;;;;;5056420;28;20025;-83
2021/04/12 06:39:57;;;;;;;5.03;3.40;;;6.90;99.90;;;;;;5043125;28;20068;-84
2021/04/12 06:42:47;;;;;;;4.22;2.97;;;6.50;99.90;;;;;;5018665;28;20017;-84
2021/04/12 06:45:50;;;;;;;4.97;2.70;;;6.90;99.90;;;;;;5018580;28;20124;-84
2021/04/12 06:48:53;;;;;;;4.72;2.83;;;7.20;99.90;;;;;;5018584;28;20056;-84
2021/04/12 06:51:37;;;;;;;3.67;2.72;;;7.00;99.90;;;;;;5018482;28;20021;-84
2021/04/12 06:54:09;;;;;;;5.38;2.92;;;7.00;99.90;;;;;;5018488;28;20032;-85
2021/04/12 06:56:53;;;;;;;4.80;3.63;;;6.90;99.90;;;;;;5036139;28;20032;-85
2021/04/12 06:59:47;;;;;;;3.20;2.90;;;6.70;99.90;;;;;;5036103;28;20116;-85
2021/04/12 07:02:37;;;;;;;3.90;3.15;;;6.60;99.90;;;;;;5018333;28;20025;-85
2021/04/12 07:05:21;;;;;;;5.30;3.05;;;6.60;99.90;;;;;;5018313;28;20445;-85
2021/04/12 07:08:11;;;;;;;7.80;4.40;;;6.60;99.90;;;;;;5018170;28;20022;-84
2021/04/12 07:11:30;;;;;;;6.63;3.92;;;6.50;99.90;;;;;;5035935;28;20523;-85
2021/04/12 07:14:49;;;;;;;7.30;4.78;;;6.50;99.90;;;;;;4978143;28;20022;-85
2021/04/12 07:17:36;;;;;;;6.85;4.38;;;6.50;99.90;;;;;;4955549;29;20082;-85
2021/04/12 07:20:38;;;;;;;4.68;3.47;;;6.10;99.90;;;;;;4955593;29;20560;-85
2021/04/12 07:23:31;;;;;;;7.80;3.88;;;6.40;99.90;;;;;;5009474;28;20440;-84
2021/04/12 07:26:09;;;;;;;5.57;3.30;;;6.40;99.90;;;;;;5017733;28;20029;-84
2021/04/12 07:29:02;;;;;;;6.30;4.70;;;6.90;99.90;;;;;;5035604;28;20083;-84
2021/04/12 07:31:56;;;;;;;5.80;4.60;;;7.10;99.90;;;;;;5035517;28;20029;-84
2021/04/12 07:35:16;;;;;;;6.18;3.75;;;6.90;99.90;;;;;;5017676;28;20087;-84
2021/04/12 07:38:11;;;;;;;5.65;4.60;;;7.10;99.90;;;;;;4977760;28;20034;-84
2021/04/12 07:40:39;;;;;;;7.25;4.47;;;7.30;99.90;;;;;;5050648;28;20042;-84
2021/04/12 07:43:23;;;;;;;6.10;4.57;;;7.20;99.90;;;;;;5035582;28;20047;-84
2021/04/12 07:46:19;;;;;;;8.10;3.72;;;7.00;99.90;;;;;;5035558;28;20465;-84
2021/04/12 07:49:19;;;;;;;6.97;5.32;;;7.20;99.90;;;;;;5035497;28;20021;-84
2021/04/12 07:52:23;;;;;;;6.50;5.00;;;7.10;99.90;;;;;;5034111;28;20094;-84
2021/04/12 07:55:01;;;;;;;7.10;4.82;;;7.30;99.90;;;;;;5004593;28;20129;-84
2021/04/12 07:57:42;;;;;;;11.98;8.75;;;7.40;99.90;;;;;;5033771;28;20037;-84
2021/04/12 08:00:32;;;;;;;9.98;6.70;;;7.30;99.90;;;;;;5033583;28;20473;-85
2021/04/12 08:03:19;;;;;;;9.57;6.47;;;7.10;99.90;;;;;;5033622;28;20026;-84
2021/04/12 08:06:13;;;;;;;15.10;9.02;;;6.90;99.90;;;;;;5033569;28;20108;-78
2021/04/12 08:08:47;;;;;;;16.60;9.55;;;7.00;99.90;;;;;;5034832;28;20022;-78
2021/04/12 08:11:34;;;;;;;10.80;6.97;;;6.90;99.90;;;;;;5034824;28;20481;-79
2021/04/12 08:14:37;;;;;;;11.55;6.95;;;7.10;99.90;;;;;;5034649;28;20025;-77
2021/04/12 08:17:53;;;;;;;14.00;7.70;;;7.00;99.90;;;;;;5033338;28;20378;-79
2021/04/12 08:20:57;;;;;;;10.55;6.53;;;7.10;99.90;;;;;;5033332;28;20088;-79
2021/04/12 08:24:04;;;;;;;16.23;7.88;;;7.40;99.90;;;;;;5001220;28;20036;-78
2021/04/12 08:27:04;;;;;;;7.90;6.22;;;7.10;99.90;;;;;;5034500;28;20025;-79
2021/04/12 08:29:58;;;;;;;9.00;6.03;;;7.20;99.90;;;;;;5034023;28;20457;-79
2021/04/12 08:33:18;;;;;;;10.85;5.80;;;7.20;99.90;;;;;;5033012;28;20120;-78
2021/04/12 08:36:02;;;;;;;8.10;5.40;;;7.30;99.90;;;;;;4956625;28;20066;-78
2021/04/12 08:38:58;;;;;;;10.38;5.78;;;7.50;99.90;;;;;;4976393;28;20133;-78
2021/04/12 08:42:02;;;;;;;10.73;7.03;;;7.40;99.90;;;;;;5040761;28;20035;-78
2021/04/12 08:44:55;;;;;;;9.55;6.22;;;7.30;99.90;;;;;;5053017;28;20113;-79
2021/04/12 08:47:40;;;;;;;7.65;6.07;;;7.40;99.90;;;;;;5052855;28;20032;-79
2021/04/12 08:50:43;;;;;;;12.75;7.30;;;7.50;99.90;;;;;;5052744;28;20025;-78
2021/04/12 08:53:36;;;;;;;8.73;6.63;;;7.20;99.90;;;;;;5052682;28;20036;-78
2021/04/12 08:56:30;;;;;;;8.75;5.40;;;7.30;99.90;;;;;;5052588;28;20021;-79
2021/04/12 08:59:24;;;;;;;9.07;5.53;;;7.50;99.90;;;;;;5054132;28;20033;-78
2021/04/12 09:02:22;;;;;;;8.00;5.05;;;7.70;99.90;;;;;;5054110;28;20017;-78
2021/04/12 09:05:00;;;;;;;9.27;5.07;;;8.10;99.90;;;;;;5052442;28;20083;-78
2021/04/12 09:08:07;;;;;;;14.75;7.50;;;8.00;99.90;;;;;;5052482;28;20021;-79
2021/04/12 09:11:11;;;;;;;9.38;4.95;;;8.10;99.90;;;;;;5052366;28;20025;-78
2021/04/12 09:14:19;;;;;;;9.07;5.07;;;8.20;99.90;;;;;;5052379;28;20085;-78
2021/04/12 09:17:17;;;;;;;8.40;4.60;;;8.00;99.90;;;;;;5054242;28;20035;-79
2021/04/12 09:19:54;;;;;;;10.65;5.05;;;7.90;99.90;;;;;;5052304;28;20020;-78
2021/04/12 09:23:01;;;;;;;7.43;4.55;;;8.00;99.90;;;;;;5052273;28;20021;-79
2021/04/12 09:25:49;;;;;;;7.68;4.47;;;7.80;99.90;;;;;;5053530;28;20035;-78
2021/04/12 09:28:20;;;;;;;9.52;4.20;;;7.90;99.90;;;;;;5052260;28;20028;-77
2021/04/12 09:31:14;;;;;;;6.53;4.30;;;7.70;99.90;;;;;;5053782;28;20029;-80
2021/04/12 09:34:14;;;;;;;6.55;4.40;;;7.50;99.90;;;;;;5053683;28;20033;-79
2021/04/12 09:37:18;;;;;;;6.75;4.45;;;7.60;99.90;;;;;;5052354;28;20029;-79
2021/04/12 09:40:21;;;;;;;10.23;4.40;;;7.60;99.90;;;;;;5052027;28;20047;-79
2021/04/12 09:43:24;;;;;;;6.68;4.30;;;7.90;99.90;;;;;;5052130;28;20029;-78
2021/04/12 09:46:14;;;;;;;6.15;4.20;;;8.10;99.90;;;;;;5052020;28;20032;-79
2021/04/12 09:48:57;;;;;;;10.95;4.07;;;8.40;99.90;;;;;;5057309;28;20033;-79
2021/04/12 09:51:39;;;;;;;8.95;5.13;;;8.50;99.90;;;;;;5057397;28;20025;-79
2021/04/12 09:54:21;;;;;;;5.20;3.33;;;8.80;99.90;;;;;;5056118;28;20392;-79
2021/04/12 09:57:10;;;;;;;5.03;3.38;;;9.10;99.90;;;;;;5057215;28;20383;-79
2021/04/12 10:00:05;;;;;;;6.57;3.72;;;9.50;99.90;;;;;;5042746;28;20033;-79
2021/04/12 10:02:40;;;;;;;5.55;3.00;;;9.30;99.90;;;;;;5057435;28;20526;-79
2021/04/12 10:05:44;;;;;;;10.93;5.25;;;9.40;99.90;;;;;;5056360;28;20032;-79
2021/04/12 10:08:30;;;;;;;11.45;2.83;;;9.20;99.90;;;;;;5056976;28;20067;-80
2021/04/12 10:11:02;;;;;;;11.50;3.35;;;8.90;99.90;;;;;;5055124;28;20059;-82
2021/04/12 10:13:36;;;;;;;17.13;3.58;;;8.90;99.90;;;;;;5055763;28;20021;-81
2021/04/12 10:16:24;;;;;;;19.00;3.83;;;8.90;99.90;;;;;;5055716;28;20155;-81
2021/04/12 10:19:09;;;;;;;9.13;3.22;;;9.20;99.90;;;;;;5056358;28;20025;-80
2021/04/12 10:21:49;;;;;;;12.35;3.38;;;9.10;99.90;;;;;;5058087;28;20078;-79
2021/04/12 10:24:15;;;;;;;13.40;3.45;;;9.30;99.90;;;;;;5058931;28;20507;-81
2021/04/12 10:27:01;;;;;;;9.15;3.38;;;9.00;99.90;;;;;;5057186;28;20021;-80
2021/04/12 10:29:49;;;;;;;14.52;3.90;;;8.90;99.90;;;;;;5056718;28;20025;-80
2021/04/12 10:32:20;;;;;;;16.55;3.63;;;8.90;99.90;;;;;;5057214;28;20025;-79
2021/04/12 10:35:00;;;;;;;9.32;2.90;;;9.20;99.90;;;;;;5056569;28;20017;-80
2021/04/12 10:38:04;;;;;;;6.63;2.20;;;9.30;99.90;;;;;;5055276;28;20032;-81
2021/04/12 10:40:41;;;;;;;6.47;2.80;;;9.60;99.90;;;;;;5033578;28;20045;-80
2021/04/12 10:43:32;;;;;;;6.10;2.55;;;9.10;99.90;;;;;;5055475;28;20072;-80
2021/04/12 10:46:09;;;;;;;7.72;3.58;;;9.40;99.90;;;;;;5056377;28;20028;-80
2021/04/12 10:48:51;;;;;;;8.98;2.63;;;9.50;99.90;;;;;;5056518;28;20025;-80
2021/04/12 10:51:27;;;;;;;5.80;2.47;;;9.50;99.90;;;;;;5055035;28;20032;-81
2021/04/12 10:54:11;;;;;;;10.43;3.50;;;9.30;99.90;;;;;;5054862;28;20103;-80
2021/04/12 10:56:51;;;;;;;9.32;2.75;;;8.90;99.90;;;;;;5055033;28;20033;-80
2021/04/12 10:59:50;;;;;;;6.82;3.20;;;8.70;99.90;;;;;;5054228;28;20116;-80
2021/04/12 11:02:38;;;;;;;7.20;3.05;;;8.60;99.90;;;;;;5055003;28;20482;-80
2021/04/12 11:05:13;;;;;;;6.55;3.20;;;8.70;99.90;;;;;;5054805;28;20014;-80
2021/04/12 11:10:20;;;;;;;7.53;3.05;;;8.60;99.90;;;;;;1355906;26;20466;-77
2021/04/12 11:13:20;;;;;;;8.45;3.08;;;8.70;99.90;;;;;;5055999;28;20060;-77
2021/04/12 11:15:56;;;;;;;7.20;3.28;;;8.70;99.90;;;;;;4994561;28;20388;-77
2021/04/12 11:18:59;;;;;;;4.55;3.00;;;8.40;99.90;;;;;;5037723;28;20435;-77
2021/04/12 11:21:54;;;;;;;8.82;3.53;;;8.10;99.90;;;;;;5037570;28;20475;-77
2021/04/12 11:28:14;;;;;;;7.72;3.35;;;8.30;99.90;;;;;;5055739;28;20094;-77
2021/04/12 11:30:45;;;;;;;6.57;3.15;;;8.00;99.90;;;;;;4984330;28;20459;-77
2021/04/12 11:33:51;;;;;;;8.35;3.65;;;8.30;99.90;;;;;;5037489;28;20017;-77
2021/04/12 11:36:36;;;;;;;;;;;8.50;99.90;;;;;;5037813;28;20356;-77
2021/04/12 11:39:14;;;;;;;4.93;3.30;;;9.60;99.90;;;;;;5036268;23;20012;-77
2021/04/12 11:41:58;;;;;;;7.32;3.03;;;10.60;99.90;;;;;;5015765;28;20057;-77
2021/04/12 11:44:30;;;;;;;6.43;2.50;;;11.80;99.90;;;;;;5014154;28;20022;-77
2021/04/12 11:47:20;;;;;;;5.55;2.67;;;12.90;99.90;;;;;;5014141;28;20114;-77
2021/04/12 11:49:49;;;;;;;5.03;2.25;;;12.40;99.90;;;;;;5014642;28;20080;-77
2021/04/12 11:52:24;;;;;;;5.57;2.63;;;12.30;99.90;;;;;;5014306;28;20040;-77
2021/04/12 11:54:56;;;;;;;3.60;2.33;;;11.90;99.90;;;;;;5013971;28;20036;-77
2021/04/12 11:58:01;;;;;;;8.15;2.53;;;11.10;99.90;;;;;;5013896;28;20084;-77
2021/04/12 12:00:55;;;;;;;4.25;2.20;;;10.50;99.90;;;;;;4971101;28;20070;-76
2021/04/12 12:03:39;;;;;;;6.53;1.90;;;9.60;99.90;;;;;;5015057;28;20101;-77
2021/04/12 12:06:42;;;;;;;7.90;2.33;;;9.40;99.90;;;;;;5013722;28;20057;-77
2021/04/12 12:09:13;;;;;;;4.47;2.00;;;9.20;99.90;;;;;;5014915;28;20029;-77
2021/04/12 12:11:50;;;;;;;5.45;2.55;;;9.00;99.90;;;;;;5012529;28;20045;-77
2021/04/12 12:14:41;;;;;;;5.65;2.42;;;9.30;99.90;;;;;;5013532;28;20030;-77
2021/04/12 12:17:32;;;;;;;3.67;2.38;;;9.60;99.90;;;;;;4976937;28;20389;-77
2021/04/12 12:20:33;;;;;;;3.88;1.80;;;9.90;99.90;;;;;;5013271;28;20088;-77
2021/04/12 12:23:26;;;;;;;6.35;2.13;;;10.00;99.90;;;;;;4972700;28;20030;-77
2021/04/12 12:25:57;;;;;;;8.57;2.10;;;10.20;99.90;;;;;;5014869;28;20018;-76
2021/04/12 12:28:43;;;;;;;5.90;2.30;;;11.20;99.80;;;;;;5014840;28;20485;-77
2021/04/12 12:31:36;;;;;;;5.85;1.77;;;12.70;97.60;;;;;;5013154;28;20030;-77
2021/04/12 12:34:02;;;;;;;3.33;1.73;;;12.40;93.60;;;;;;5013174;28;20034;-78
2021/04/12 12:36:46;;;;;;;4.07;1.70;;;11.80;93.60;;;;;;5013073;28;20036;-77
2021/04/12 12:39:17;;;;;;;3.20;1.90;;;11.10;94.40;;;;;;5012722;28;20069;-77
2021/04/12 12:41:46;;;;;;;6.13;2.10;;;10.50;96.90;;;;;;4996699;28;20085;-77
2021/04/12 12:44:17;;;;;;;3.58;1.83;;;9.80;96.60;;;;;;5014295;28;20033;-77
2021/04/12 12:46:45;;;;;;;3.92;1.77;;;9.50;99.90;;;;;;5014479;28;20475;-77
2021/04/12 12:49:16;;;;;;;4.25;2.10;;;9.30;99.00;;;;;;5012874;28;20056;-77
2021/04/12 12:51:57;;;;;;;4.25;2.15;;;9.30;98.10;;;;;;5012754;28;20449;-77
2021/04/12 12:54:29;;;;;;;3.92;2.28;;;9.10;98.60;;;;;;5013960;28;20037;-77
2021/04/12 12:57:17;;;;;;;6.70;1.88;;;9.60;99.50;;;;;;5014020;28;20075;-76
2021/04/12 12:59:49;;;;;;;3.30;1.65;;;10.20;96.40;;;;;;5012711;28;20441;-77
2021/04/12 13:02:25;;;;;;;4.30;1.67;;;11.00;97.20;;;;;;5012738;28;20025;-77
2021/04/12 13:05:03;;;;;;;5.97;2.30;;;12.20;92.00;;;;;;5013949;28;20026;-77
2021/04/12 13:07:30;;;;;;;4.95;1.88;;;13.90;83.20;;;;;;5014463;28;20398;-78
2021/04/12 13:10:07;;;;;;;3.53;1.73;;;14.70;89.80;;;;;;5014099;28;20056;-78
2021/04/12 13:12:39;;;;;;;3.13;1.20;;;13.80;83.90;;;;;;5014097;28;20029;-77
2021/04/12 13:15:40;;;;;;;5.72;1.40;;;12.70;88.60;;;;;;5012586;28;20041;-78
2021/04/12 13:18:08;;;;;;;4.43;1.48;;;11.90;89.10;;;;;;5010821;28;20440;-78
2021/04/12 13:20:48;;;;;;;4.22;1.55;;;10.90;91.10;;;;;;5013646;28;20057;-78
2021/04/12 13:23:19;;;;;;;3.08;1.50;;;10.50;93.60;;;;;;5013141;28;20049;-78
2021/04/12 13:25:51;;;;;;;6.05;1.75;;;10.60;92.70;;;;;;5012468;28;20172;-78
2021/04/12 13:28:37;;;;;;;8.23;1.77;;;10.40;91.90;;;;;;5012400;28;20473;-78
2021/04/12 13:31:08;;;;;;;2.47;1.58;;;10.00;93.80;;;;;;5011720;28;20092;-78
2021/04/12 13:33:40;;;;;;;3.97;1.50;;;9.70;94.30;;;;;;5012298;28;20018;-77
2021/04/12 13:36:37;;;;;;;13.20;2.10;;;9.40;96.90;;;;;;5012266;28;20065;-78
2021/04/12 13:39:09;;;;;;;5.43;1.77;;;9.10;97.30;;;;;;5011991;28;20124;-77
2021/04/12 13:41:47;;;;;;;3.38;1.40;;;8.70;97.30;;;;;;5012179;28;20080;-77
2021/04/12 13:44:20;;;;;;;4.20;1.60;;;8.60;98.60;;;;;;5013766;28;20069;-77
2021/04/12 13:47:14;;;;;;;2.35;1.33;;;8.40;99.70;;;;;;5012167;28;20025;-77
2021/04/12 13:49:45;;;;;;;7.90;1.67;;;8.30;99.90;;;;;;5012109;28;20088;-77
2021/04/12 13:52:21;;;;;;;4.20;1.60;;;8.60;99.90;;;;;;5012126;28;20117;-77
2021/04/12 13:55:01;;;;;;;3.08;1.48;;;8.70;99.90;;;;;;5012545;28;20058;-77
2021/04/12 13:57:41;;;;;;;3.85;1.85;;;8.90;99.90;;;;;;5013260;28;20080;-77
2021/04/12 14:00:30;;;;;;;5.07;1.58;;;8.70;98.80;;;;;;5011848;28;20022;-77
2021/04/12 14:03:04;;;;;;;2.85;1.58;;;8.70;99.90;;;;;;5011949;28;20022;-77
2021/04/12 14:05:40;;;;;;;5.00;1.70;;;8.80;99.90;;;;;;5009029;28;20034;-77
2021/04/12 14:08:27;;;;;;;3.72;1.50;;;8.90;99.90;;;;;;5013389;28;20026;-77
2021/04/12 14:10:59;;;;;;;6.97;1.85;;;9.00;99.70;;;;;;5013253;28;20033;-77
2021/04/12 14:13:27;;;;;;;2.88;1.48;;;9.00;99.50;;;;;;5012994;28;20461;-78
2021/04/12 14:16:07;;;;;;;3.03;1.45;;;9.00;99.90;;;;;;5011801;28;20473;-77
2021/04/12 14:18:38;;;;;;;7.78;1.70;;;9.10;99.70;;;;;;5013520;28;20460;-78
2021/04/12 14:21:26;;;;;;;3.10;1.92;;;9.00;99.90;;;;;;5011697;28;20058;-78
2021/04/12 14:24:01;;;;;;;2.88;1.65;;;8.80;99.40;;;;;;4997911;28;20191;-77
2021/04/12 14:26:41;;;;;;;2.22;1.50;;;8.80;99.60;;;;;;5011700;28;20026;-77
2021/04/12 14:29:31;;;;;;;3.80;1.75;;;8.70;97.40;;;;;;5012919;28;20485;-77
2021/04/12 14:32:20;;;;;;;4.57;2.00;;;8.60;99.90;;;;;;5013087;28;20084;-78
2021/04/12 14:34:56;;;;;;;4.80;1.85;;;8.60;99.90;;;;;;5005638;28;20046;-78
2021/04/12 14:37:31;;;;;;;5.20;2.15;;;8.60;99.30;;;;;;5016483;28;20079;-77
2021/04/12 14:40:26;;;;;;;3.00;1.45;;;8.70;98.00;;;;;;5033332;28;20137;-77
2021/04/12 14:43:03;;;;;;;3.30;1.52;;;9.20;98.80;;;;;;5036248;28;20376;-77